createdAt,value
2023-05-23T00:00:19.606Z,100141.31
2023-05-23T00:02:47.158Z,100134.00
2023-05-23T00:05:15.590Z,100145.59
2023-05-23T00:07:42.886Z,100140.94
2023-05-23T00:10:10.635Z,100139.19
2023-05-23T00:12:42.444Z,100140.75
2023-05-23T00:15:10.095Z,100143.38
2023-05-23T00:17:38.362Z,100143.19
2023-05-23T00:20:09.657Z,100149.03
2023-05-23T00:22:39.786Z,100157.41
2023-05-23T00:25:08.043Z,100160.25
2023-05-23T00:27:35.061Z,100158.03
2023-05-23T00:30:02.815Z,100171.41
2023-05-23T00:32:29.756Z,100163.00
2023-05-23T00:34:56.683Z,100159.75
2023-05-23T00:37:23.742Z,100161.28
2023-05-23T00:39:50.684Z,100156.81
2023-05-23T00:42:17.732Z,100160.59
2023-05-23T00:44:44.725Z,100157.84
2023-05-23T00:47:13.878Z,100156.72
2023-05-23T00:49:41.255Z,100147.69
2023-05-23T00:52:08.331Z,100145.41
2023-05-23T00:54:37.133Z,100160.31
2023-05-23T00:57:04.574Z,100163.47
2023-05-23T00:59:32.170Z,100170.13
2023-05-23T01:02:00.817Z,100164.81
2023-05-23T01:04:28.309Z,100161.63
2023-05-23T01:06:56.770Z,100163.06
2023-05-23T01:09:26.463Z,100157.81
2023-05-23T01:12:26.096Z,100165.31
2023-05-23T01:15:11.196Z,100167.81
2023-05-23T01:18:08.463Z,100169.13
2023-05-23T01:20:45.236Z,100169.56
2023-05-23T01:23:52.397Z,100168.06
2023-05-23T01:26:41.629Z,100174.50
2023-05-23T01:29:43.242Z,100170.72
2023-05-23T01:32:13.256Z,100167.81
2023-05-23T01:34:42.593Z,100181.94
2023-05-23T01:37:11.824Z,100177.75
2023-05-23T01:39:39.239Z,100180.81
2023-05-23T01:42:07.081Z,100175.56
2023-05-23T01:44:35.790Z,100177.84
2023-05-23T01:47:08.854Z,100186.88
2023-05-23T01:49:37.332Z,100181.69
2023-05-23T01:52:05.935Z,100181.84
2023-05-23T01:54:35.490Z,100187.97
2023-05-23T01:57:03.238Z,100190.44
2023-05-23T01:59:30.301Z,100191.88
2023-05-23T02:01:57.206Z,100192.50
2023-05-23T02:04:24.189Z,100183.91
2023-05-23T02:06:51.224Z,100195.16
2023-05-23T02:09:18.222Z,100204.47
2023-05-23T02:11:45.428Z,100197.41
2023-05-23T02:14:12.971Z,100194.59
2023-05-23T02:16:40.103Z,100196.13
2023-05-23T02:19:07.096Z,100197.03
2023-05-23T02:21:35.420Z,100197.41
2023-05-23T02:24:02.760Z,100201.84
2023-05-23T02:26:30.120Z,100206.44
2023-05-23T02:28:57.043Z,100198.06
2023-05-23T02:31:24.229Z,100207.13
2023-05-23T02:33:51.201Z,100203.16
2023-05-23T02:36:18.210Z,100205.19
2023-05-23T02:38:45.183Z,100199.94
2023-05-23T02:41:12.668Z,100215.78
2023-05-23T02:43:39.776Z,100212.50
2023-05-23T02:46:06.858Z,100207.63
2023-05-23T02:48:33.853Z,100202.13
2023-05-23T02:51:00.905Z,100206.28
2023-05-23T02:53:27.987Z,100206.47
2023-05-23T02:55:54.927Z,100201.56
2023-05-23T02:58:21.875Z,100210.53
2023-05-23T03:00:48.867Z,100210.53
2023-05-23T03:03:16.980Z,100212.34
2023-05-23T03:05:44.267Z,100209.16
2023-05-23T03:08:11.263Z,100212.34
2023-05-23T03:10:38.189Z,100206.94
2023-05-23T03:13:05.388Z,100213.97
2023-05-23T03:15:32.462Z,100207.97
2023-05-23T03:17:59.536Z,100207.53
2023-05-23T03:20:26.518Z,100215.97
2023-05-23T03:22:53.639Z,100217.91
2023-05-23T03:25:20.624Z,100219.56
2023-05-23T03:27:47.679Z,100225.00
2023-05-23T03:30:14.774Z,100227.13
2023-05-23T03:32:42.260Z,100232.50
2023-05-23T03:35:09.830Z,100227.84
2023-05-23T03:37:36.875Z,100227.13
2023-05-23T03:40:04.843Z,100229.22
2023-05-23T03:42:32.154Z,100230.34
2023-05-23T03:44:59.135Z,100237.03
2023-05-23T03:47:26.310Z,100237.66
2023-05-23T03:49:53.487Z,100231.25
2023-05-23T03:52:20.564Z,100246.00
2023-05-23T03:54:47.610Z,100238.66
2023-05-23T03:57:14.704Z,100241.38
2023-05-23T03:59:41.753Z,100249.44
2023-05-23T04:02:08.815Z,100247.09
2023-05-23T04:04:36.277Z,100246.66
2023-05-23T04:07:05.609Z,100253.78
2023-05-23T04:09:32.624Z,100250.22
2023-05-23T04:11:59.525Z,100252.03
2023-05-23T04:14:27.500Z,100256.84
2023-05-23T04:16:54.595Z,100263.00
2023-05-23T04:19:21.597Z,100252.16
2023-05-23T04:21:48.518Z,100261.28
2023-05-23T04:24:15.694Z,100275.66
2023-05-23T04:26:43.061Z,100257.38
2023-05-23T04:29:12.234Z,100268.53
2023-05-23T04:31:39.400Z,100258.31
2023-05-23T04:34:07.952Z,100259.28
2023-05-23T04:36:38.109Z,100265.19
2023-05-23T04:39:08.591Z,100263.09
2023-05-23T04:41:36.424Z,100257.03
2023-05-23T04:44:03.742Z,100261.84
2023-05-23T04:46:30.878Z,100270.25
2023-05-23T04:48:59.053Z,100260.72
2023-05-23T04:51:26.031Z,100279.28
2023-05-23T04:53:53.157Z,100273.97
2023-05-23T04:56:22.876Z,100270.28
2023-05-23T04:58:49.861Z,100276.19
2023-05-23T05:01:16.934Z,100278.84
2023-05-23T05:03:44.017Z,100271.22
2023-05-23T05:06:10.981Z,100287.59
2023-05-23T05:08:38.082Z,100283.84
2023-05-23T05:11:05.109Z,100288.00
2023-05-23T05:13:32.134Z,100280.47
2023-05-23T05:15:59.353Z,100275.66
2023-05-23T05:18:27.259Z,100277.56
2023-05-23T05:20:54.251Z,100285.66
2023-05-23T05:23:24.975Z,100291.56
2023-05-23T05:25:52.079Z,100287.81
2023-05-23T05:28:19.013Z,100294.63
2023-05-23T05:30:46.623Z,100295.38
2023-05-23T05:33:13.754Z,100303.16
2023-05-23T05:35:40.784Z,100305.16
2023-05-23T05:38:08.661Z,100302.91
2023-05-23T05:40:35.804Z,100309.97
2023-05-23T05:43:02.863Z,100318.78
2023-05-23T05:45:29.898Z,100317.56
2023-05-23T05:47:56.949Z,100319.69
2023-05-23T05:50:24.572Z,100322.81
2023-05-23T05:52:51.518Z,100321.78
2023-05-23T05:55:18.499Z,100333.91
2023-05-23T05:57:45.499Z,100332.41
2023-05-23T06:00:19.112Z,100333.66
2023-05-23T06:02:54.970Z,100337.88
2023-05-23T06:05:22.139Z,100344.38
2023-05-23T06:07:50.642Z,100341.69
2023-05-23T06:10:17.890Z,100349.28
2023-05-23T06:12:45.821Z,100361.63
2023-05-23T06:15:16.043Z,100363.22
2023-05-23T06:17:44.881Z,100364.88
2023-05-23T06:20:12.354Z,100353.69
2023-05-23T06:22:39.672Z,100357.59
2023-05-23T06:25:07.812Z,100365.63
2023-05-23T06:27:34.732Z,100370.78
2023-05-23T06:30:03.334Z,100372.16
2023-05-23T06:32:30.399Z,100381.44
2023-05-23T06:34:57.347Z,100394.63
2023-05-23T06:37:24.934Z,100392.38
2023-05-23T06:39:51.913Z,100390.53
2023-05-23T06:42:18.892Z,100379.81
2023-05-23T06:44:45.997Z,100383.78
2023-05-23T06:47:12.929Z,100378.69
2023-05-23T06:49:39.895Z,100383.81
2023-05-23T06:52:06.863Z,100389.13
2023-05-23T06:54:33.825Z,100405.53
2023-05-23T06:57:00.888Z,100400.03
2023-05-23T06:59:27.852Z,100406.41
2023-05-23T07:01:54.777Z,100409.50
2023-05-23T07:04:21.711Z,100404.63
2023-05-23T07:06:49.340Z,100411.44
2023-05-23T07:09:16.397Z,100428.06
2023-05-23T07:11:43.461Z,100421.19
2023-05-23T07:14:10.433Z,100432.13
2023-05-23T07:16:37.602Z,100442.91
2023-05-23T07:19:05.554Z,100437.66
2023-05-23T07:21:32.628Z,100428.41
2023-05-23T07:24:00.626Z,100450.16
2023-05-23T07:26:27.716Z,100438.19
2023-05-23T07:28:54.826Z,100444.91
2023-05-23T07:31:21.851Z,100456.16
2023-05-23T07:33:49.124Z,100461.13
2023-05-23T07:36:16.762Z,100443.19
2023-05-23T07:38:43.828Z,100450.34
2023-05-23T07:41:12.328Z,100449.09
2023-05-23T07:43:40.863Z,100453.59
2023-05-23T07:46:08.141Z,100456.16
2023-05-23T07:48:35.632Z,100447.97
2023-05-23T07:51:02.572Z,100448.91
2023-05-23T07:53:29.581Z,100456.59
2023-05-23T07:55:56.859Z,100452.44
2023-05-23T07:58:23.855Z,100456.25
2023-05-23T08:00:52.702Z,100453.34
2023-05-23T08:03:20.181Z,100460.03
2023-05-23T08:05:47.796Z,100462.28
2023-05-23T08:08:14.841Z,100465.38
2023-05-23T08:10:41.970Z,100462.84
2023-05-23T08:13:14.825Z,100468.84
2023-05-23T08:15:41.770Z,100456.16
2023-05-23T08:18:08.978Z,100460.56
2023-05-23T08:20:36.412Z,100463.88
2023-05-23T08:23:03.448Z,100446.75
2023-05-23T08:25:33.517Z,100433.59
2023-05-23T08:28:01.442Z,100449.03
2023-05-23T08:30:29.374Z,100452.00
2023-05-23T08:32:57.887Z,100453.38
2023-05-23T08:35:24.915Z,100455.28
2023-05-23T08:37:52.485Z,100454.59
2023-05-23T08:40:22.616Z,100446.50
2023-05-23T08:42:51.094Z,100447.59
2023-05-23T08:45:18.678Z,100464.69
2023-05-23T08:47:47.414Z,100460.16
2023-05-23T08:50:18.551Z,100466.19
2023-05-23T08:52:58.742Z,100475.75
2023-05-23T08:55:28.451Z,100471.31
2023-05-23T08:57:59.386Z,100477.69
2023-05-23T09:00:28.011Z,100480.63
2023-05-23T09:02:55.545Z,100470.25
2023-05-23T09:05:22.844Z,100479.66
2023-05-23T09:07:51.087Z,100486.84
2023-05-23T09:10:22.026Z,100475.84
2023-05-23T09:12:49.607Z,100495.66
2023-05-23T09:15:17.368Z,100479.97
2023-05-23T09:17:45.550Z,100483.47
2023-05-23T09:20:15.661Z,100482.38
2023-05-23T09:22:50.692Z,100483.72
2023-05-23T09:25:17.764Z,100482.59
2023-05-23T09:27:47.777Z,100496.41
2023-05-23T09:30:15.791Z,100499.28
2023-05-23T09:32:44.620Z,100490.44
2023-05-23T09:35:14.020Z,100487.00
2023-05-23T09:37:49.018Z,100497.91
2023-05-23T09:40:16.621Z,100479.97
2023-05-23T09:42:45.188Z,100449.41
2023-05-23T09:45:16.781Z,100435.78
2023-05-23T09:47:52.120Z,100439.66
2023-05-23T09:50:20.391Z,100431.38
2023-05-23T09:52:48.073Z,100444.38
2023-05-23T09:55:15.262Z,100446.81
2023-05-23T09:57:43.967Z,100447.56
2023-05-23T10:00:15.116Z,100455.47
2023-05-23T10:03:11.055Z,100447.81
2023-05-23T10:05:51.906Z,100436.53
2023-05-23T10:08:29.860Z,100424.13
2023-05-23T10:10:56.903Z,100423.16
2023-05-23T10:13:28.932Z,100445.75
2023-05-23T10:16:40.192Z,100442.25
2023-05-23T10:19:18.035Z,100461.19
2023-05-23T10:21:56.974Z,100455.94
2023-05-23T10:24:26.657Z,100454.28
2023-05-23T10:26:55.457Z,100441.69
2023-05-23T10:29:23.651Z,100456.34
2023-05-23T10:31:53.020Z,100436.59
2023-05-23T10:34:57.888Z,100444.38
2023-05-23T10:38:00.159Z,100454.75
2023-05-23T10:40:27.028Z,100451.28
2023-05-23T10:43:14.027Z,100456.88
2023-05-23T10:45:43.216Z,100442.31
2023-05-23T10:48:32.652Z,100449.03
2023-05-23T10:51:11.203Z,100453.88
2023-05-23T10:53:44.674Z,100454.09
2023-05-23T10:56:24.138Z,100457.34
2023-05-23T10:58:55.499Z,100457.53
2023-05-23T11:01:23.930Z,100445.75
2023-05-23T11:03:55.174Z,100442.88
2023-05-23T11:06:44.655Z,100458.94
2023-05-23T11:09:22.292Z,100477.84
2023-05-23T11:11:52.362Z,100479.31
2023-05-23T11:14:20.916Z,100490.81
2023-05-23T11:16:49.154Z,100487.75
2023-05-23T11:19:19.326Z,100489.50
2023-05-23T11:22:03.101Z,100498.38
2023-05-23T11:24:54.798Z,100489.41
2023-05-23T11:27:30.983Z,100477.47
2023-05-23T11:30:04.408Z,100490.41
2023-05-23T11:32:31.999Z,100489.69
2023-05-23T11:35:07.744Z,100485.16
2023-05-23T11:37:35.403Z,100477.38
2023-05-23T11:40:41.656Z,100471.34
2023-05-23T11:43:16.557Z,100474.06
2023-05-23T11:45:44.060Z,100466.34
2023-05-23T11:48:13.854Z,100477.16
2023-05-23T11:50:54.477Z,100482.91
2023-05-23T11:53:25.224Z,100466.22
2023-05-23T11:55:59.947Z,100470.25
2023-05-23T11:58:36.014Z,100462.09
2023-05-23T12:01:12.105Z,100459.50
2023-05-23T12:03:51.118Z,100453.44
2023-05-23T12:06:24.673Z,100443.50
2023-05-23T12:08:54.716Z,100455.75
2023-05-23T12:11:23.721Z,100455.34
2023-05-23T12:13:53.642Z,100457.34
2023-05-23T12:16:21.616Z,100439.69
2023-05-23T12:18:48.990Z,100445.56
2023-05-23T12:21:15.987Z,100447.97
2023-05-23T12:23:43.060Z,100429.78
2023-05-23T12:26:10.389Z,100432.31
2023-05-23T12:28:45.598Z,100419.41
2023-05-23T12:31:22.296Z,100428.63
2023-05-23T12:33:52.563Z,100418.97
2023-05-23T12:36:26.120Z,100424.09
2023-05-23T12:38:53.809Z,100420.03
2023-05-23T12:41:22.019Z,100448.91
2023-05-23T12:43:54.370Z,100445.56
2023-05-23T12:46:23.704Z,100436.44
2023-05-23T12:48:51.428Z,100426.25
2023-05-23T12:51:18.829Z,100414.47
2023-05-23T12:53:46.333Z,100418.34
2023-05-23T12:56:13.369Z,100406.53
2023-05-23T12:58:40.353Z,100402.75
2023-05-23T13:01:07.545Z,100400.63
2023-05-23T13:03:34.775Z,100399.88
2023-05-23T13:06:02.680Z,100408.03
2023-05-23T13:08:29.632Z,100421.56
2023-05-23T13:10:57.722Z,100417.41
2023-05-23T13:13:24.944Z,100422.78
2023-05-23T13:15:52.140Z,100419.88
2023-05-23T13:18:19.359Z,100415.28
2023-05-23T13:20:46.580Z,100415.22
2023-05-23T13:23:14.027Z,100423.16
2023-05-23T13:25:41.484Z,100410.84
2023-05-23T13:28:08.932Z,100432.16
2023-05-23T13:30:35.870Z,100423.19
2023-05-23T13:33:03.621Z,100417.91
2023-05-23T13:35:30.867Z,100448.94
2023-05-23T13:37:57.809Z,100423.97
2023-05-23T13:40:24.928Z,100435.41
2023-05-23T13:42:52.120Z,100427.88
2023-05-23T13:45:20.226Z,100430.91
2023-05-23T13:47:47.576Z,100427.47
2023-05-23T13:50:14.981Z,100426.06
2023-05-23T13:52:44.865Z,100433.56
2023-05-23T13:55:12.952Z,100424.41
2023-05-23T13:57:39.889Z,100415.09
2023-05-23T14:00:09.479Z,100427.72
2023-05-23T14:02:36.706Z,100418.69
2023-05-23T14:05:04.227Z,100410.00
2023-05-23T14:07:31.565Z,100421.56
2023-05-23T14:09:59.798Z,100417.09
2023-05-23T14:12:27.068Z,100426.84
2023-05-23T14:14:54.090Z,100421.41
2023-05-23T14:17:21.249Z,100428.75
2023-05-23T14:19:48.423Z,100429.72
2023-05-23T14:22:15.506Z,100423.19
2023-05-23T14:24:42.536Z,100433.09
2023-05-23T14:27:11.234Z,100444.28
2023-05-23T14:29:39.097Z,100440.41
2023-05-23T14:32:06.610Z,100458.09
2023-05-23T14:34:33.914Z,100452.63
2023-05-23T14:37:01.402Z,100440.44
2023-05-23T14:39:29.206Z,100432.66
2023-05-23T14:41:56.475Z,100439.16
2023-05-23T14:44:23.813Z,100448.28
2023-05-23T14:46:50.929Z,100435.78
2023-05-23T14:49:18.102Z,100435.19
2023-05-23T14:51:50.733Z,100430.50
2023-05-23T14:54:19.729Z,100421.38
2023-05-23T14:56:46.944Z,100418.72
2023-05-23T14:59:14.063Z,100439.28
2023-05-23T15:01:42.899Z,100434.19
2023-05-23T15:04:10.352Z,100430.88
2023-05-23T15:06:39.249Z,100432.34
2023-05-23T15:09:09.373Z,100445.59
2023-05-23T15:11:39.192Z,100437.41
2023-05-23T15:14:06.621Z,100438.16
2023-05-23T15:16:35.181Z,100449.06
2023-05-23T15:19:02.639Z,100449.56
2023-05-23T15:21:29.715Z,100445.03
2023-05-23T15:23:57.754Z,100450.91
2023-05-23T15:26:25.339Z,100451.13
2023-05-23T15:28:52.340Z,100453.56
2023-05-23T15:31:19.376Z,100438.69
2023-05-23T15:33:47.816Z,100435.94
2023-05-23T15:36:14.965Z,100438.41
2023-05-23T15:38:42.047Z,100444.56
2023-05-23T15:41:09.073Z,100419.16
2023-05-23T15:43:36.107Z,100441.66
2023-05-23T15:46:03.384Z,100449.94
2023-05-23T15:48:30.515Z,100443.09
2023-05-23T15:50:57.618Z,100443.25
2023-05-23T15:53:24.584Z,100444.56
2023-05-23T15:55:51.563Z,100443.16
2023-05-23T15:58:18.500Z,100453.94
2023-05-23T16:00:45.486Z,100455.91
2023-05-23T16:03:12.611Z,100440.72
2023-05-23T16:05:39.778Z,100452.72
2023-05-23T16:08:07.066Z,100452.97
2023-05-23T16:10:34.038Z,100456.53
2023-05-23T16:13:01.157Z,100472.41
2023-05-23T16:15:28.166Z,100463.81
2023-05-23T16:17:55.346Z,100463.03
2023-05-23T16:20:22.280Z,100450.69
2023-05-23T16:22:49.222Z,100454.22
2023-05-23T16:25:16.160Z,100460.50
2023-05-23T16:27:43.225Z,100440.75
2023-05-23T16:30:10.585Z,100457.47
2023-05-23T16:32:37.664Z,100462.94
2023-05-23T16:35:05.004Z,100464.63
2023-05-23T16:37:31.958Z,100473.47
2023-05-23T16:39:59.128Z,100472.25
2023-05-23T16:42:26.192Z,100469.25
2023-05-23T16:44:53.498Z,100458.63
2023-05-23T16:47:20.536Z,100458.19
2023-05-23T16:49:47.453Z,100466.81
2023-05-23T16:52:14.641Z,100457.50
2023-05-23T16:54:41.675Z,100462.38
2023-05-23T16:57:08.901Z,100455.53
2023-05-23T16:59:35.890Z,100457.50
2023-05-23T17:02:03.317Z,100457.44
2023-05-23T17:04:30.257Z,100463.25
2023-05-23T17:06:57.277Z,100465.16
2023-05-23T17:09:24.215Z,100467.28
2023-05-23T17:11:52.239Z,100459.63
2023-05-23T17:14:19.707Z,100445.72
2023-05-23T17:16:46.678Z,100446.56
2023-05-23T17:19:13.757Z,100450.09
2023-05-23T17:21:41.209Z,100447.13
2023-05-23T17:24:08.252Z,100442.78
2023-05-23T17:26:35.653Z,100464.81
2023-05-23T17:29:02.614Z,100465.03
2023-05-23T17:31:30.787Z,100461.00
2023-05-23T17:33:58.284Z,100463.72
2023-05-23T17:36:25.243Z,100461.81
2023-05-23T17:38:54.954Z,100469.50
2023-05-23T17:41:24.882Z,100470.94
2023-05-23T17:43:51.856Z,100468.22
2023-05-23T17:46:18.876Z,100474.28
2023-05-23T17:48:48.045Z,100471.63
2023-05-23T17:51:15.892Z,100466.03
2023-05-23T17:53:43.350Z,100485.41
2023-05-23T17:56:11.312Z,100483.59
2023-05-23T17:58:40.953Z,100478.59
2023-05-23T18:01:11.593Z,100502.75
2023-05-23T18:03:39.039Z,100503.09
2023-05-23T18:06:06.820Z,100497.38
2023-05-23T18:08:33.846Z,100489.94
2023-05-23T18:11:00.891Z,100490.22
2023-05-23T18:13:27.880Z,100499.47
2023-05-23T18:15:54.873Z,100497.84
2023-05-23T18:18:22.641Z,100513.03
2023-05-23T18:20:49.602Z,100521.91
2023-05-23T18:23:18.406Z,100527.28
2023-05-23T18:25:45.540Z,100531.31
2023-05-23T18:28:12.589Z,100523.31
2023-05-23T18:30:39.706Z,100532.03
2023-05-23T18:33:07.325Z,100525.22
2023-05-23T18:35:34.405Z,100523.50
2023-05-23T18:38:01.468Z,100530.47
2023-05-23T18:40:28.422Z,100527.03
2023-05-23T18:42:55.784Z,100540.06
2023-05-23T18:45:22.823Z,100539.28
2023-05-23T18:50:17.047Z,100545.22
2023-05-23T18:52:44.426Z,100549.88
2023-05-23T18:55:11.782Z,100551.50
2023-05-23T18:57:39.165Z,100541.84
2023-05-23T19:00:07.436Z,100548.78
2023-05-23T19:02:35.030Z,100551.75
2023-05-23T19:05:02.537Z,100556.34
2023-05-23T19:07:29.541Z,100566.19
2023-05-23T19:09:56.588Z,100575.53
2023-05-23T19:12:23.584Z,100573.25
2023-05-23T19:14:50.640Z,100582.41
2023-05-23T19:17:17.568Z,100591.75
2023-05-23T19:19:44.661Z,100597.28
2023-05-23T19:22:12.134Z,100604.00
2023-05-23T19:24:39.428Z,100619.56
2023-05-23T19:27:06.772Z,100619.03
2023-05-23T19:29:33.852Z,100626.41
2023-05-23T19:32:00.910Z,100614.56
2023-05-23T19:34:28.369Z,100632.22
2023-05-23T19:36:55.429Z,100628.59
2023-05-23T19:39:22.493Z,100628.91
2023-05-23T19:41:49.852Z,100635.91
2023-05-23T19:44:16.934Z,100639.59
2023-05-23T19:46:44.030Z,100637.69
2023-05-23T19:49:10.997Z,100638.19
2023-05-23T19:51:38.255Z,100646.78
2023-05-23T19:54:05.717Z,100646.63
2023-05-23T19:56:34.273Z,100644.06
2023-05-23T19:59:01.443Z,100654.31
2023-05-23T20:01:30.732Z,100653.31
2023-05-23T20:03:57.770Z,100665.34
2023-05-23T20:06:24.751Z,100660.63
2023-05-23T20:08:51.903Z,100674.72
2023-05-23T20:11:19.095Z,100670.00
2023-05-23T20:13:46.086Z,100672.41
2023-05-23T20:16:13.186Z,100673.16
2023-05-23T20:18:42.922Z,100677.31
2023-05-23T20:21:09.971Z,100668.56
2023-05-23T20:23:37.061Z,100677.34
2023-05-23T20:26:04.242Z,100676.91
2023-05-23T20:28:32.795Z,100679.34
2023-05-23T20:30:59.775Z,100671.22
2023-05-23T20:33:26.739Z,100677.22
2023-05-23T20:35:54.054Z,100674.34
2023-05-23T20:38:21.047Z,100655.78
2023-05-23T20:40:52.425Z,100670.16
2023-05-23T20:43:22.242Z,100676.19
2023-05-23T20:45:49.308Z,100683.00
2023-05-23T20:48:16.630Z,100679.19
2023-05-23T20:50:44.124Z,100668.25
2023-05-23T20:53:11.426Z,100675.03
2023-05-23T20:55:38.399Z,100692.84
2023-05-23T20:58:06.831Z,100694.25
2023-05-23T21:00:33.951Z,100694.25
2023-05-23T21:03:02.186Z,100693.28
2023-05-23T21:05:29.595Z,100702.09
2023-05-23T21:07:56.544Z,100705.72
2023-05-23T21:10:23.606Z,100710.28
2023-05-23T21:12:50.813Z,100704.09
2023-05-23T21:15:18.763Z,100712.94
2023-05-23T21:17:46.302Z,100715.38
2023-05-23T21:20:13.823Z,100715.94
2023-05-23T21:22:41.213Z,100716.63
2023-05-23T21:25:08.763Z,100725.59
2023-05-23T21:27:35.843Z,100716.41
2023-05-23T21:30:04.349Z,100721.00
2023-05-23T21:32:31.378Z,100720.75
2023-05-23T21:34:58.352Z,100722.16
2023-05-23T21:37:25.716Z,100709.25
2023-05-23T21:39:52.882Z,100707.63
2023-05-23T21:42:20.988Z,100697.19
2023-05-23T21:44:48.162Z,100707.31
2023-05-23T21:47:15.124Z,100705.16
2023-05-23T21:49:42.313Z,100695.00
2023-05-23T21:52:09.346Z,100694.66
2023-05-23T21:54:36.354Z,100707.09
2023-05-23T21:57:03.549Z,100711.16
2023-05-23T21:59:30.524Z,100705.97
2023-05-23T22:01:57.863Z,100715.22
2023-05-23T22:04:24.958Z,100720.53
2023-05-23T22:06:52.421Z,100713.50
2023-05-23T22:09:19.587Z,100721.34
2023-05-23T22:11:46.512Z,100727.44
2023-05-23T22:14:13.468Z,100729.59
2023-05-23T22:16:40.846Z,100725.22
2023-05-23T22:19:12.489Z,100729.88
2023-05-23T22:21:40.529Z,100728.66
2023-05-23T22:24:07.716Z,100731.19
2023-05-23T22:26:34.630Z,100723.66
2023-05-23T22:29:02.093Z,100725.88
2023-05-23T22:31:29.170Z,100737.63
2023-05-23T22:33:56.321Z,100723.13
2023-05-23T22:36:23.488Z,100729.69
2023-05-23T22:38:50.766Z,100732.03
2023-05-23T22:41:18.107Z,100732.97
2023-05-23T22:43:45.664Z,100738.75
2023-05-23T22:46:12.744Z,100738.91
2023-05-23T22:48:39.894Z,100742.09
2023-05-23T22:51:08.189Z,100743.16
2023-05-23T22:53:35.328Z,100741.66
2023-05-23T22:56:02.810Z,100742.00
2023-05-23T22:58:29.799Z,100748.38
2023-05-23T23:00:56.838Z,100744.63
2023-05-23T23:03:23.892Z,100739.41
2023-05-23T23:05:50.942Z,100744.69
2023-05-23T23:08:19.352Z,100750.53
2023-05-23T23:10:46.524Z,100751.50
2023-05-23T23:13:16.256Z,100758.16
2023-05-23T23:15:43.981Z,100750.19
2023-05-23T23:18:13.496Z,100754.78
2023-05-23T23:20:41.295Z,100752.06
2023-05-23T23:23:08.730Z,100749.22
2023-05-23T23:25:36.530Z,100747.19
2023-05-23T23:28:03.717Z,100750.13
2023-05-23T23:30:30.818Z,100749.94
2023-05-23T23:32:58.147Z,100754.34
2023-05-23T23:35:25.222Z,100746.47
2023-05-23T23:37:52.161Z,100752.19
2023-05-23T23:40:19.213Z,100760.69
2023-05-23T23:42:46.431Z,100752.19
2023-05-23T23:45:13.419Z,100757.88
2023-05-23T23:47:42.484Z,100752.84
2023-05-23T23:50:09.593Z,100744.25
2023-05-23T23:52:39.094Z,100737.88
2023-05-23T23:55:06.945Z,100730.44
2023-05-23T23:57:33.923Z,100727.06
